This is the latest recevied weather packets stored in our database for station/object KC3ELT-10. If no packets are shown the sender has not sent any weather packets the latest 10 day(s).
| Time | Temp. | Humidity | Pressure | Rain* | Wind** | Luminosity | Snow |
|---|---|---|---|---|---|---|---|
| 1777589878 | 9.44° C | 82% | 1003.4 hPa | 0 mm | 0.89 m/s, 271° | - | - |
| 1777589579 | 9.44° C | 81% | 1003.4 hPa | 0 mm | 1.34 m/s, 282° | - | - |
| 1777589278 | 10° C | 78% | 1003.4 hPa | 0 mm | 2.68 m/s, 285° | - | - |
| 1777588979 | 10.56° C | 76% | 1002.4 hPa | 0 mm | 5.81 m/s, 274° | - | - |
| 1777588678 | 12.22° C | 68% | 1002.4 hPa | 0 mm | 6.71 m/s, 288° | - | - |
| 1777588379 | 13.33° C | 64% | 1002.4 hPa | 0 mm | 3.13 m/s, 321° | - | - |
| 1777588079 | 13.33° C | 63% | 1002.3 hPa | 0 mm | 0 m/s | - | - |
| 1777587778 | 13.33° C | 62% | 1002.3 hPa | 0 mm | 0 m/s | - | - |
| 1777587479 | 13.89° C | 61% | 1002.3 hPa | 0 mm | 0.89 m/s, 25° | - | - |
| 1777587178 | 13.89° C | 61% | 1002.2 hPa | 0 mm | 1.34 m/s, 342° | - | - |
| 1777586878 | 13.89° C | 61% | 1002.2 hPa | 0 mm | 0.45 m/s, 0° | - | - |
| 1777586579 | 14.44° C | 61% | 1002.2 hPa | 0 mm | 0.45 m/s, 1° | - | - |
| 1777586279 | 14.44° C | 59% | 1002.1 hPa | 0 mm | 0 m/s | - | - |
| 1777585979 | 15° C | 59% | 1002.1 hPa | 0 mm | 0 m/s | - | - |
| 1777585678 | 15° C | 58% | 1002.1 hPa | 0 mm | 0 m/s | - | - |
| 1777585378 | 14.44° C | 59% | 1002.2 hPa | 0 mm | 0 m/s | - | - |
| 1777585079 | 13.89° C | 61% | 1002.2 hPa | 0 mm | 0.45 m/s, 12° | - | - |
| 1777584778 | 13.33° C | 61% | 1002.2 hPa | 0 mm | 0.45 m/s, 343° | - | - |
| 1777584479 | 13.33° C | 60% | 1002.2 hPa | 0 mm | 0.89 m/s, 1° | - | - |
| 1777584179 | 13.33° C | 60% | 1002.2 hPa | 0 mm | 1.34 m/s, 297° | - | - |
| 1777583878 | 13.33° C | 61% | 1002.2 hPa | 0 mm | 0.89 m/s, 335° | - | - |
| 1777583579 | 13.33° C | 60% | 1002 hPa | 0 mm | 0.89 m/s, 0° | - | - |
| 1777583279 | 13.89° C | 60% | 1002 hPa | 0 mm | 1.34 m/s, 314° | - | - |
| 1777582979 | 13.33° C | 61% | 1002 hPa | 0 mm | 1.79 m/s, 345° | - | - |
| 1777582679 | 13.33° C | 62% | 1001.8 hPa | 0 mm | 1.34 m/s, 357° | - | - |
* Rain latest hour (hover to see other rain measurements)
** Current wind speed in m/s (hover to see current wind gust speed)